Time;durP1;ratioP1;P1;durP2;ratioP2;P2;SDS_P1;SDS_P2;PMS_P1;PMS_P2;Temp;Humidity;BMP_temperature;BMP_pressure;BME280_temperature;BME280_humidity;BME280_pressure;Samples;Min_cycle;Max_cycle;Signal;HPM_P1;HPM_P2
2021/11/10 00:02:04;;;;;;;15.20;12.35;;;3.40;99.90;;;;;;5041489;28;20229;-85
2021/11/10 00:04:31;;;;;;;12.52;11.23;;;3.40;99.90;;;;;;5041655;28;20209;-86
2021/11/10 00:06:59;;;;;;;12.13;11.02;;;3.30;99.90;;;;;;5046892;28;20201;-86
2021/11/10 00:09:26;;;;;;;12.80;11.40;;;3.20;99.90;;;;;;5061745;28;20207;-86
2021/11/10 00:11:54;;;;;;;15.63;12.63;;;3.20;99.90;;;;;;5060921;28;20228;-84
2021/11/10 00:14:21;;;;;;;18.30;12.23;;;3.20;99.90;;;;;;5060951;28;20265;-85
2021/11/10 00:16:47;;;;;;;16.30;10.88;;;3.20;99.90;;;;;;5046800;28;20211;-86
2021/11/10 00:19:15;;;;;;;12.18;10.63;;;3.30;99.90;;;;;;5040997;28;20673;-85
2021/11/10 00:21:41;;;;;;;11.80;10.65;;;3.10;99.90;;;;;;5056668;28;20235;-85
2021/11/10 00:24:10;;;;;;;17.20;12.50;;;2.90;99.90;;;;;;5060521;28;20212;-85
2021/11/10 00:26:36;;;;;;;17.10;11.80;;;3.00;99.90;;;;;;5046939;28;20210;-84
2021/11/10 00:29:03;;;;;;;17.02;13.48;;;3.10;99.90;;;;;;5040432;28;20220;-85
2021/11/10 00:31:30;;;;;;;14.05;12.27;;;3.10;99.90;;;;;;5042331;28;20231;-86
2021/11/10 00:33:57;;;;;;;11.98;10.07;;;3.10;99.90;;;;;;5045702;28;20198;-85
2021/11/10 00:36:24;;;;;;;14.82;11.70;;;3.20;99.90;;;;;;5061034;28;20220;-85
2021/11/10 00:38:50;;;;;;;16.25;14.52;;;3.20;99.90;;;;;;5060278;28;20575;-85
2021/11/10 00:41:18;;;;;;;15.13;11.50;;;3.30;99.90;;;;;;5060563;28;20230;-85
2021/11/10 00:43:46;;;;;;;21.17;15.20;;;3.30;99.90;;;;;;5056470;28;20196;-85
2021/11/10 00:46:13;;;;;;;14.15;12.77;;;3.20;99.90;;;;;;5040715;28;20209;-86
2021/11/10 00:48:39;;;;;;;17.85;14.70;;;3.10;99.90;;;;;;5043298;28;20220;-86
2021/11/10 00:51:06;;;;;;;15.10;13.50;;;3.10;99.90;;;;;;5060335;28;20223;-85
2021/11/10 00:53:33;;;;;;;15.48;12.20;;;3.20;99.90;;;;;;5057446;28;20244;-86
2021/11/10 00:56:00;;;;;;;13.38;11.13;;;3.30;99.90;;;;;;5040980;28;20209;-86
2021/11/10 00:58:28;;;;;;;15.75;11.60;;;3.30;99.90;;;;;;5040614;28;20209;-86
2021/11/10 01:00:55;;;;;;;15.15;11.60;;;3.30;99.90;;;;;;5060483;28;20203;-85
2021/11/10 01:03:23;;;;;;;13.88;10.77;;;3.30;99.90;;;;;;5060277;28;20203;-85
2021/11/10 01:05:50;;;;;;;13.52;11.55;;;3.30;99.90;;;;;;5040980;28;20202;-85
2021/11/10 01:08:18;;;;;;;14.93;12.18;;;3.30;99.90;;;;;;5040210;28;20243;-85
2021/11/10 01:10:45;;;;;;;17.02;13.65;;;3.30;99.90;;;;;;5040024;28;20240;-85
2021/11/10 01:13:12;;;;;;;15.20;12.88;;;3.30;99.90;;;;;;5040221;28;20226;-86
2021/11/10 01:15:42;;;;;;;15.68;13.90;;;3.30;99.90;;;;;;5039515;28;20206;-86
2021/11/10 01:18:09;;;;;;;21.90;15.05;;;3.30;99.90;;;;;;5040090;28;20213;-86
2021/11/10 01:20:36;;;;;;;17.98;15.65;;;3.30;99.90;;;;;;5039113;28;20205;-86
2021/11/10 01:23:03;;;;;;;22.13;15.88;;;3.30;99.90;;;;;;5038674;28;20222;-86
2021/11/10 01:25:30;;;;;;;16.10;14.45;;;3.30;99.90;;;;;;5054178;28;20583;-85
2021/11/10 01:27:57;;;;;;;20.40;15.18;;;3.20;99.90;;;;;;5060690;28;20214;-86
2021/11/10 01:30:24;;;;;;;16.48;13.30;;;3.20;99.90;;;;;;5049187;28;20328;-86
2021/11/10 01:32:53;;;;;;;16.95;14.57;;;3.20;99.90;;;;;;5043105;28;20237;-86
2021/11/10 01:35:20;;;;;;;16.67;14.07;;;3.20;99.90;;;;;;5056677;28;20207;-86
2021/11/10 01:37:47;;;;;;;17.92;13.45;;;3.20;99.90;;;;;;5062770;28;20201;-86
2021/11/10 01:40:18;;;;;;;17.30;13.73;;;3.20;99.90;;;;;;5063221;28;20215;-86
2021/11/10 01:42:46;;;;;;;15.77;14.05;;;3.20;99.90;;;;;;5062409;28;20588;-86
2021/11/10 01:45:16;;;;;;;15.50;13.25;;;3.20;99.90;;;;;;5062842;28;20205;-86
2021/11/10 01:47:44;;;;;;;17.10;13.48;;;3.20;99.90;;;;;;5058537;28;20208;-85
2021/11/10 01:50:14;;;;;;;19.08;14.75;;;3.20;99.90;;;;;;5043383;28;20205;-86
2021/11/10 01:52:43;;;;;;;17.17;12.85;;;3.20;99.90;;;;;;5043386;28;20226;-86
2021/11/10 01:55:11;;;;;;;19.60;13.52;;;3.20;99.90;;;;;;5045422;28;20214;-86
2021/11/10 01:57:38;;;;;;;17.75;15.25;;;3.10;99.90;;;;;;5047691;28;20198;-86
2021/11/10 02:00:11;;;;;;;16.67;15.00;;;3.00;99.90;;;;;;5063335;28;20255;-86
2021/11/10 02:02:40;;;;;;;16.88;12.60;;;2.80;99.90;;;;;;5062933;28;20234;-86
2021/11/10 02:05:08;;;;;;;18.90;13.95;;;2.80;99.90;;;;;;5060755;28;20705;-85
2021/11/10 02:07:37;;;;;;;15.00;12.80;;;2.90;99.90;;;;;;5062994;28;20239;-84
2021/11/10 02:10:06;;;;;;;15.05;12.60;;;2.90;99.90;;;;;;5057597;28;20205;-85
2021/11/10 02:12:34;;;;;;;13.57;12.20;;;2.80;99.90;;;;;;5044820;28;20233;-85
2021/11/10 02:15:02;;;;;;;14.05;12.63;;;2.90;99.90;;;;;;5062168;28;20694;-86
2021/11/10 02:17:29;;;;;;;17.05;12.63;;;2.90;99.90;;;;;;5062858;28;20284;-86
2021/11/10 02:19:55;;;;;;;14.57;12.85;;;3.00;99.90;;;;;;5047868;28;20206;-86
2021/11/10 02:22:24;;;;;;;15.15;13.55;;;2.90;99.90;;;;;;5042030;28;20230;-86
2021/11/10 02:24:51;;;;;;;19.25;15.80;;;3.00;99.90;;;;;;5055130;28;20582;-86
2021/11/10 02:27:19;;;;;;;17.50;12.90;;;3.00;99.90;;;;;;5045242;28;20204;-86
2021/11/10 02:29:48;;;;;;;17.63;13.63;;;3.00;99.90;;;;;;5054400;28;20218;-85
2021/11/10 02:32:16;;;;;;;14.27;12.93;;;3.00;99.90;;;;;;5061226;28;20221;-86
2021/11/10 02:34:45;;;;;;;17.23;15.40;;;3.00;99.90;;;;;;5053513;28;20212;-86
2021/11/10 02:37:13;;;;;;;12.45;10.80;;;3.00;99.90;;;;;;5042261;28;20206;-86
2021/11/10 02:39:41;;;;;;;21.88;16.67;;;3.10;99.90;;;;;;5050017;28;20204;-86
2021/11/10 02:42:08;;;;;;;16.95;13.40;;;3.10;99.90;;;;;;5063014;28;20225;-85
2021/11/10 02:44:35;;;;;;;19.58;14.30;;;3.00;99.90;;;;;;5053373;28;20207;-85
2021/11/10 02:47:05;;;;;;;17.83;15.13;;;3.00;99.90;;;;;;5046135;28;20212;-85
2021/11/10 02:49:31;;;;;;;17.27;14.55;;;3.00;99.90;;;;;;5058339;28;20287;-85
2021/11/10 02:52:00;;;;;;;14.70;12.52;;;3.00;99.90;;;;;;5061914;28;20234;-85
2021/11/10 02:54:29;;;;;;;14.80;13.35;;;3.00;99.90;;;;;;5066776;28;20240;-82
2021/11/10 02:56:59;;;;;;;17.30;13.93;;;3.00;99.90;;;;;;5080861;28;20198;-84
2021/11/10 02:59:27;;;;;;;15.07;13.57;;;3.00;99.90;;;;;;5062274;28;20201;-83
2021/11/10 03:01:54;;;;;;;18.95;13.70;;;3.00;99.90;;;;;;5060072;28;20209;-82
2021/11/10 03:04:23;;;;;;;19.17;14.63;;;2.90;99.90;;;;;;5077482;28;20189;-83
2021/11/10 03:06:50;;;;;;;18.27;13.40;;;2.90;99.90;;;;;;5066936;28;20208;-86
2021/11/10 03:09:18;;;;;;;13.75;12.25;;;2.90;99.90;;;;;;5057366;28;20206;-85
2021/11/10 03:11:45;;;;;;;17.25;14.27;;;2.80;99.90;;;;;;5040608;28;20228;-86
2021/11/10 03:14:14;;;;;;;27.05;17.23;;;2.80;99.90;;;;;;5055307;28;20235;-86
2021/11/10 03:16:41;;;;;;;17.30;15.07;;;2.80;99.90;;;;;;5061308;28;20603;-86
2021/11/10 03:19:08;;;;;;;15.63;12.88;;;2.80;99.90;;;;;;5047735;28;20213;-86
2021/11/10 03:21:35;;;;;;;19.25;14.30;;;2.80;99.90;;;;;;5040801;28;20236;-86
2021/11/10 03:24:01;;;;;;;18.90;14.73;;;2.80;99.90;;;;;;5041270;28;20215;-85
2021/11/10 03:26:28;;;;;;;17.60;14.43;;;2.80;99.90;;;;;;5041127;28;20279;-86
2021/11/10 03:28:55;;;;;;;16.90;13.68;;;2.80;99.90;;;;;;5041070;28;20214;-85
2021/11/10 03:31:23;;;;;;;17.55;14.82;;;2.80;99.90;;;;;;5041401;28;20223;-86
2021/11/10 03:33:50;;;;;;;17.88;15.32;;;2.80;99.90;;;;;;5042555;28;20580;-86
2021/11/10 03:36:17;;;;;;;16.67;13.63;;;2.80;99.90;;;;;;5044457;28;20212;-85
2021/11/10 03:38:44;;;;;;;24.55;14.95;;;2.70;99.90;;;;;;5044965;28;20205;-86
2021/11/10 03:41:11;;;;;;;19.27;13.88;;;2.70;99.90;;;;;;5049847;28;20220;-86
2021/11/10 03:43:37;;;;;;;20.08;14.98;;;2.70;99.90;;;;;;5060072;28;20228;-86
2021/11/10 03:46:04;;;;;;;17.23;14.63;;;2.70;99.90;;;;;;5060484;28;20212;-85
2021/11/10 03:48:32;;;;;;;25.90;14.43;;;2.60;99.90;;;;;;5060618;28;20586;-87
2021/11/10 03:50:59;;;;;;;15.65;13.52;;;2.50;99.90;;;;;;5059844;28;20309;-86
2021/11/10 03:53:26;;;;;;;14.85;12.75;;;2.50;99.90;;;;;;5059622;28;20710;-85
2021/11/10 03:55:53;;;;;;;14.82;13.23;;;2.50;99.90;;;;;;5059951;28;20217;-86
2021/11/10 03:58:20;;;;;;;16.65;13.50;;;2.40;99.90;;;;;;5059880;28;20218;-85
2021/11/10 04:00:46;;;;;;;22.85;14.82;;;2.40;99.90;;;;;;5054500;28;20200;-86
2021/11/10 04:03:13;;;;;;;16.05;13.02;;;2.40;99.90;;;;;;5042606;28;20202;-86
2021/11/10 04:05:42;;;;;;;15.35;12.57;;;2.40;99.90;;;;;;5061687;28;20207;-86
2021/11/10 04:08:10;;;;;;;15.50;13.73;;;2.40;99.90;;;;;;5060485;28;20203;-86
2021/11/10 04:10:37;;;;;;;14.93;12.18;;;2.40;99.90;;;;;;5042230;28;20267;-86
2021/11/10 04:13:04;;;;;;;18.27;14.68;;;2.40;99.90;;;;;;5039077;28;20233;-86
2021/11/10 04:15:31;;;;;;;15.32;13.45;;;2.40;99.90;;;;;;5054164;28;20199;-86
2021/11/10 04:17:58;;;;;;;14.20;12.80;;;2.40;99.90;;;;;;5059059;28;20195;-86
2021/11/10 04:20:24;;;;;;;17.30;13.68;;;2.40;99.90;;;;;;5060264;28;20211;-85
2021/11/10 04:22:53;;;;;;;15.55;13.98;;;2.40;99.90;;;;;;5044183;28;20300;-86
2021/11/10 04:25:20;;;;;;;15.23;13.27;;;2.40;99.90;;;;;;5040250;28;20206;-86
2021/11/10 04:27:47;;;;;;;23.35;15.30;;;2.40;99.90;;;;;;5039577;28;20741;-85
2021/11/10 04:30:14;;;;;;;20.92;15.77;;;2.30;99.90;;;;;;5039354;28;20267;-86
2021/11/10 04:32:41;;;;;;;19.88;15.20;;;2.20;99.90;;;;;;5052124;28;20219;-86
2021/11/10 04:35:10;;;;;;;13.98;12.40;;;2.30;99.90;;;;;;5060523;28;20208;-86
2021/11/10 04:37:37;;;;;;;13.90;12.40;;;2.30;99.90;;;;;;5064342;28;20598;-85
2021/11/10 04:40:08;;;;;;;17.85;14.20;;;2.20;99.90;;;;;;5066521;28;20566;-85
2021/11/10 04:42:35;;;;;;;20.27;14.00;;;2.00;99.90;;;;;;5053942;28;20228;-86
2021/11/10 04:45:07;;;;;;;15.88;13.98;;;2.00;99.90;;;;;;5055037;28;20201;-85
2021/11/10 04:47:35;;;;;;;16.38;13.40;;;2.00;99.90;;;;;;5059377;28;20214;-86
2021/11/10 04:50:02;;;;;;;18.17;13.00;;;2.10;99.90;;;;;;5060423;28;20708;-85
2021/11/10 04:52:29;;;;;;;16.13;14.35;;;2.00;99.90;;;;;;5059507;28;20711;-85
2021/11/10 04:54:56;;;;;;;20.17;14.45;;;1.90;99.90;;;;;;5060236;28;20221;-85
2021/11/10 04:57:24;;;;;;;16.73;14.63;;;2.00;99.90;;;;;;5041143;28;20593;-86
2021/11/10 04:59:51;;;;;;;20.90;14.95;;;2.00;99.90;;;;;;5041058;28;20215;-86
2021/11/10 05:02:26;;;;;;;18.90;14.80;;;2.00;99.90;;;;;;5039677;28;20604;-85
2021/11/10 05:04:55;;;;;;;19.02;15.63;;;2.10;99.90;;;;;;5040529;28;20366;-85
2021/11/10 05:07:22;;;;;;;18.60;15.10;;;2.00;99.90;;;;;;5053434;28;20212;-85
2021/11/10 05:09:51;;;;;;;17.75;15.80;;;2.00;99.90;;;;;;5041707;28;20206;-85
2021/11/10 05:12:21;;;;;;;20.08;14.82;;;2.10;99.90;;;;;;5040968;28;20255;-85
2021/11/10 05:14:55;;;;;;;18.55;15.10;;;2.10;99.90;;;;;;5056174;28;20649;-85
2021/11/10 05:17:22;;;;;;;20.40;13.90;;;2.20;99.90;;;;;;5040371;28;20191;-85
2021/11/10 05:19:50;;;;;;;22.30;16.38;;;2.30;99.90;;;;;;5051200;28;20693;-85
2021/11/10 05:22:17;;;;;;;21.25;14.40;;;2.30;99.90;;;;;;5038825;28;20282;-85
2021/11/10 05:24:44;;;;;;;18.33;14.35;;;2.30;99.90;;;;;;5040501;28;20207;-85
2021/11/10 05:27:13;;;;;;;19.65;13.93;;;2.40;99.90;;;;;;5040829;28;20213;-85
2021/11/10 05:29:40;;;;;;;17.70;14.75;;;2.40;99.90;;;;;;5059135;28;20208;-85
2021/11/10 05:32:09;;;;;;;22.15;15.82;;;2.40;99.90;;;;;;5059830;28;20221;-85
2021/11/10 05:34:36;;;;;;;19.25;14.32;;;2.40;99.90;;;;;;5060995;28;20236;-85
2021/11/10 05:37:03;;;;;;;18.35;12.82;;;2.50;99.90;;;;;;5049335;28;20209;-85
2021/11/10 05:39:30;;;;;;;16.08;12.90;;;2.50;99.90;;;;;;5040399;28;20468;-84
2021/11/10 05:41:58;;;;;;;15.85;12.73;;;2.50;99.90;;;;;;5040338;28;20233;-85
2021/11/10 05:44:25;;;;;;;21.80;13.45;;;2.50;99.90;;;;;;5055890;28;20274;-85
2021/11/10 05:46:51;;;;;;;15.13;12.60;;;2.50;99.90;;;;;;5052099;28;20681;-85
2021/11/10 05:49:20;;;;;;;19.85;15.88;;;2.50;99.90;;;;;;5041106;28;20208;-85
2021/11/10 05:51:46;;;;;;;19.98;14.32;;;2.50;99.90;;;;;;5040398;28;20247;-85
2021/11/10 05:54:13;;;;;;;19.10;12.07;;;2.50;99.90;;;;;;5040258;28;20231;-85
2021/11/10 05:56:42;;;;;;;18.95;14.63;;;2.60;99.90;;;;;;5041404;28;20198;-85
2021/11/10 05:59:09;;;;;;;18.60;15.05;;;2.60;99.90;;;;;;5053328;28;20274;-85
2021/11/10 06:01:38;;;;;;;23.30;17.40;;;2.60;99.90;;;;;;5061233;28;20228;-86
2021/11/10 06:04:05;;;;;;;15.30;13.05;;;2.60;99.90;;;;;;5048932;28;20201;-86
2021/11/10 06:06:33;;;;;;;19.25;15.25;;;2.60;99.90;;;;;;5041574;28;20219;-86
2021/11/10 06:09:00;;;;;;;24.85;16.23;;;2.60;99.90;;;;;;5058788;28;20203;-87
2021/11/10 06:11:27;;;;;;;21.75;17.55;;;2.60;99.90;;;;;;5060311;28;20220;-86
2021/11/10 06:13:53;;;;;;;19.20;15.98;;;2.50;99.90;;;;;;5044109;28;20670;-86
2021/11/10 06:16:20;;;;;;;21.50;16.60;;;2.50;99.90;;;;;;5073089;28;20195;-86
2021/11/10 06:18:47;;;;;;;17.95;13.70;;;2.50;99.90;;;;;;5061859;28;20829;-85
2021/11/10 06:21:15;;;;;;;17.60;15.48;;;2.40;99.90;;;;;;5067823;28;20223;-86
2021/11/10 06:23:43;;;;;;;16.98;14.45;;;2.40;99.90;;;;;;5075558;28;20207;-85
2021/11/10 06:26:10;;;;;;;17.48;15.02;;;2.30;99.90;;;;;;5078081;28;20690;-85
2021/11/10 06:28:37;;;;;;;16.23;14.18;;;2.30;99.90;;;;;;5057051;28;20261;-87
2021/11/10 06:31:04;;;;;;;17.92;14.05;;;2.40;99.90;;;;;;5072285;28;20230;-86
2021/11/10 06:33:46;;;;;;;19.02;15.10;;;2.40;99.90;;;;;;5064145;28;20215;-87
2021/11/10 06:36:12;;;;;;;24.02;14.30;;;2.40;99.90;;;;;;5063782;28;20590;-86
2021/11/10 06:38:39;;;;;;;17.63;13.82;;;2.40;99.90;;;;;;5066245;28;20659;-87
2021/11/10 06:41:07;;;;;;;17.65;15.70;;;2.40;99.90;;;;;;5065556;28;20273;-86
2021/11/10 06:43:35;;;;;;;23.30;15.65;;;2.40;99.90;;;;;;5063430;28;20200;-86
2021/11/10 06:46:02;;;;;;;17.65;14.65;;;2.40;99.90;;;;;;5069358;28;20208;-87
2021/11/10 06:48:30;;;;;;;15.52;13.63;;;2.50;99.90;;;;;;5070708;28;20204;-86
2021/11/10 06:50:58;;;;;;;17.55;14.45;;;2.40;99.90;;;;;;5064703;28;20223;-86
2021/11/10 06:53:27;;;;;;;19.85;16.85;;;2.40;99.90;;;;;;5065856;28;20603;-86
2021/11/10 06:55:54;;;;;;;19.33;14.30;;;2.50;99.90;;;;;;5069140;28;20209;-86
2021/11/10 06:58:25;;;;;;;19.50;14.93;;;2.50;99.90;;;;;;5071186;28;20197;-86
2021/11/10 07:00:52;;;;;;;26.35;16.52;;;2.60;99.90;;;;;;5066410;28;20203;-86
2021/11/10 07:03:19;;;;;;;15.63;14.07;;;2.60;99.90;;;;;;5064371;28;20566;-85
2021/11/10 07:05:47;;;;;;;20.48;14.52;;;2.70;99.90;;;;;;5065722;28;20203;-85
2021/11/10 07:08:14;;;;;;;18.67;14.93;;;2.70;99.90;;;;;;5082035;28;20673;-83
2021/11/10 07:10:40;;;;;;;20.15;15.82;;;2.70;99.90;;;;;;5075576;28;20200;-83
2021/11/10 07:13:08;;;;;;;17.45;12.35;;;2.70;99.90;;;;;;5059544;28;20229;-83
2021/11/10 07:15:36;;;;;;;18.85;15.38;;;2.80;99.90;;;;;;5060198;28;20220;-83
2021/11/10 07:18:03;;;;;;;22.48;16.52;;;2.80;99.90;;;;;;5061103;28;20214;-83
2021/11/10 07:20:30;;;;;;;20.75;16.92;;;2.90;99.90;;;;;;5052215;28;20272;-83
2021/11/10 07:22:58;;;;;;;24.35;17.15;;;3.00;99.90;;;;;;5041218;28;20229;-83
2021/11/10 07:25:25;;;;;;;23.90;17.75;;;3.10;99.90;;;;;;5040875;28;20205;-83
2021/11/10 07:27:52;;;;;;;24.38;18.48;;;3.20;99.90;;;;;;5058492;28;20202;-84
2021/11/10 07:30:19;;;;;;;21.80;17.85;;;3.30;99.90;;;;;;5068817;28;20205;-83
2021/11/10 07:32:47;;;;;;;18.83;16.60;;;3.40;99.90;;;;;;5078390;28;20257;-83
2021/11/10 07:35:15;;;;;;;26.23;17.13;;;3.40;99.90;;;;;;5065696;28;20690;-85
2021/11/10 07:37:45;;;;;;;23.92;16.73;;;3.50;99.90;;;;;;5043513;28;20592;-84
2021/11/10 07:40:13;;;;;;;19.95;16.60;;;3.70;99.90;;;;;;5062249;28;20208;-84
2021/11/10 07:42:40;;;;;;;21.45;17.33;;;3.70;99.90;;;;;;5058488;28;20229;-84
2021/11/10 07:45:09;;;;;;;18.73;16.70;;;3.80;99.90;;;;;;5040323;28;20291;-85
2021/11/10 07:47:41;;;;;;;20.42;16.27;;;3.90;99.90;;;;;;5041796;28;20289;-85
2021/11/10 07:50:12;;;;;;;18.98;16.50;;;4.00;99.90;;;;;;5061020;28;20206;-84
2021/11/10 07:52:39;;;;;;;20.83;14.65;;;4.10;99.90;;;;;;5051076;28;20232;-85
2021/11/10 07:55:06;;;;;;;20.25;16.48;;;4.10;99.90;;;;;;5053665;28;20240;-84
2021/11/10 07:57:35;;;;;;;18.30;16.50;;;3.80;99.90;;;;;;5060390;28;20670;-84
2021/11/10 08:00:04;;;;;;;18.75;15.38;;;3.80;99.90;;;;;;5059705;28;20209;-84
2021/11/10 08:02:31;;;;;;;17.73;15.30;;;3.60;99.90;;;;;;5060346;28;20259;-83
2021/11/10 08:04:58;;;;;;;17.25;15.50;;;3.60;99.90;;;;;;5059832;28;20210;-83
2021/11/10 08:07:26;;;;;;;20.70;17.00;;;3.90;99.90;;;;;;5058991;28;20213;-83
2021/11/10 08:09:53;;;;;;;23.02;15.57;;;4.10;99.90;;;;;;5060673;28;20205;-83
2021/11/10 08:12:20;;;;;;;21.50;16.83;;;4.00;99.90;;;;;;5061244;28;20573;-83
2021/11/10 08:14:46;;;;;;;19.15;16.58;;;4.10;99.90;;;;;;5064440;28;20224;-83
2021/11/10 08:17:13;;;;;;;18.40;15.55;;;4.20;99.90;;;;;;5062113;28;20211;-83
2021/11/10 08:19:40;;;;;;;17.60;15.45;;;4.30;99.90;;;;;;5059872;28;20213;-83
2021/11/10 08:22:07;;;;;;;21.48;17.85;;;4.20;99.90;;;;;;5059033;28;20243;-83
2021/11/10 08:24:35;;;;;;;17.95;15.18;;;4.20;99.90;;;;;;5059071;28;20205;-83
2021/11/10 08:27:02;;;;;;;16.15;13.70;;;4.40;99.90;;;;;;5059404;28;20258;-83
2021/11/10 08:29:29;;;;;;;20.00;16.20;;;4.50;99.90;;;;;;5059246;28;20208;-83
2021/11/10 08:31:56;;;;;;;19.73;16.42;;;4.40;99.90;;;;;;5058713;28;20229;-83
2021/11/10 08:34:22;;;;;;;16.30;14.55;;;4.60;99.90;;;;;;5058909;28;20226;-83
2021/11/10 08:36:50;;;;;;;19.00;16.00;;;4.80;99.90;;;;;;5058493;28;20213;-83
2021/11/10 08:39:16;;;;;;;17.05;15.18;;;5.00;99.90;;;;;;5058828;28;20237;-83
2021/11/10 08:41:47;;;;;;;19.42;16.55;;;5.30;99.90;;;;;;5058325;28;20602;-83
2021/11/10 08:44:15;;;;;;;20.02;14.73;;;5.40;99.90;;;;;;5058827;28;20190;-83
2021/11/10 08:46:42;;;;;;;18.80;15.57;;;5.50;99.90;;;;;;5058810;28;20205;-85
2021/11/10 08:49:09;;;;;;;17.70;14.80;;;5.70;99.90;;;;;;5058731;28;20206;-83
2021/11/10 08:51:36;;;;;;;17.42;15.32;;;5.60;99.90;;;;;;5058492;28;20233;-83
2021/11/10 08:54:04;;;;;;;22.42;15.73;;;5.70;99.90;;;;;;5058214;28;20786;-84
2021/11/10 08:56:31;;;;;;;16.98;13.88;;;5.90;99.90;;;;;;5058205;28;20205;-84
2021/11/10 08:59:00;;;;;;;16.85;14.55;;;6.10;99.90;;;;;;5058595;28;20201;-83
2021/11/10 09:01:34;;;;;;;23.23;15.75;;;6.30;99.90;;;;;;5058107;28;20225;-85
2021/11/10 09:04:06;;;;;;;18.58;15.15;;;6.50;99.90;;;;;;5059989;28;20208;-84
2021/11/10 09:06:33;;;;;;;17.30;15.48;;;6.60;99.90;;;;;;5062491;28;20273;-83
2021/11/10 09:09:00;;;;;;;19.48;14.85;;;6.80;99.90;;;;;;5061305;28;20622;-84
2021/11/10 09:11:27;;;;;;;16.38;14.57;;;6.90;99.90;;;;;;5058835;28;20230;-84
2021/11/10 09:13:54;;;;;;;18.15;15.02;;;7.10;99.90;;;;;;5058919;28;20219;-84
2021/11/10 09:16:22;;;;;;;16.27;14.60;;;7.20;99.90;;;;;;5059554;28;20229;-83
2021/11/10 09:18:49;;;;;;;17.08;15.32;;;7.30;99.90;;;;;;5059083;28;20202;-84
2021/11/10 09:21:15;;;;;;;26.40;13.27;;;7.40;99.90;;;;;;5058966;28;20299;-83
2021/11/10 09:23:42;;;;;;;22.65;15.27;;;7.50;99.90;;;;;;5058125;28;20241;-84
2021/11/10 09:26:09;;;;;;;17.75;15.88;;;7.60;99.90;;;;;;5058803;28;20212;-83
2021/11/10 09:28:36;;;;;;;15.85;13.25;;;7.70;99.90;;;;;;5058328;28;20675;-84
2021/11/10 09:31:04;;;;;;;17.65;15.75;;;7.30;99.90;;;;;;5057650;28;20229;-84
2021/11/10 09:33:35;;;;;;;22.38;15.07;;;7.00;99.90;;;;;;5058025;28;20228;-83
2021/11/10 09:36:03;;;;;;;18.77;14.35;;;6.90;99.90;;;;;;5057613;28;20233;-83
2021/11/10 09:38:30;;;;;;;18.80;15.73;;;7.00;99.90;;;;;;5057833;28;20286;-83
2021/11/10 09:40:59;;;;;;;16.65;14.77;;;7.20;99.90;;;;;;5058329;28;20209;-83
2021/11/10 09:43:30;;;;;;;15.77;13.60;;;7.40;99.90;;;;;;5058205;28;20210;-84
2021/11/10 09:45:57;;;;;;;15.10;13.52;;;7.50;99.90;;;;;;5058369;28;20206;-83
2021/11/10 09:48:26;;;;;;;20.52;15.48;;;7.60;99.90;;;;;;5058803;28;20231;-84
2021/11/10 09:50:54;;;;;;;17.55;14.57;;;7.80;99.90;;;;;;5062457;28;20665;-84
2021/11/10 09:53:22;;;;;;;17.63;14.02;;;7.90;99.90;;;;;;5062283;28;20613;-84
2021/11/10 09:55:50;;;;;;;16.75;15.18;;;8.10;99.90;;;;;;5061883;28;20226;-83
2021/11/10 09:58:17;;;;;;;19.58;15.63;;;8.30;99.90;;;;;;5062851;28;20216;-83
2021/11/10 10:00:47;;;;;;;18.77;15.95;;;8.40;99.90;;;;;;5064150;28;20690;-84
2021/11/10 10:03:15;;;;;;;18.50;16.50;;;8.60;99.90;;;;;;5063257;28;20263;-84
2021/11/10 10:05:42;;;;;;;15.30;11.73;;;8.70;99.90;;;;;;5062312;28;20209;-84
2021/11/10 10:08:11;;;;;;;17.95;15.05;;;8.80;99.90;;;;;;5061458;28;20206;-84
2021/11/10 10:10:39;;;;;;;18.50;16.67;;;8.90;99.90;;;;;;5062040;28;20209;-84
2021/11/10 10:13:07;;;;;;;17.38;14.20;;;8.90;99.90;;;;;;5062200;28;20324;-83
2021/11/10 10:15:35;;;;;;;16.52;14.73;;;9.00;99.90;;;;;;5062224;28;20225;-84
2021/11/10 10:18:03;;;;;;;19.27;14.00;;;9.00;99.90;;;;;;5062542;28;20406;-84
2021/11/10 10:20:32;;;;;;;15.98;14.23;;;9.00;99.90;;;;;;5062262;28;20206;-84
2021/11/10 10:23:02;;;;;;;21.15;15.98;;;9.00;99.90;;;;;;5077568;28;20409;-82
2021/11/10 10:25:43;;;;;;;19.92;14.50;;;9.10;99.90;;;;;;5080978;28;20214;-82
2021/11/10 10:28:11;;;;;;;15.50;13.90;;;9.10;99.90;;;;;;5080847;28;20181;-83
2021/11/10 10:30:40;;;;;;;18.25;15.98;;;9.10;99.90;;;;;;5079958;28;20194;-83
2021/11/10 10:33:10;;;;;;;17.17;15.20;;;8.90;99.90;;;;;;5079453;28;20236;-84
2021/11/10 10:35:41;;;;;;;18.65;13.75;;;9.00;99.90;;;;;;5062426;28;20249;-84
2021/11/10 10:38:10;;;;;;;16.55;14.52;;;9.10;99.90;;;;;;5062626;28;20233;-84
2021/11/10 10:40:38;;;;;;;14.98;12.85;;;9.10;99.90;;;;;;5061927;28;20212;-84
2021/11/10 10:43:07;;;;;;;16.58;14.80;;;9.30;99.90;;;;;;5061874;28;20236;-85
2021/11/10 10:45:36;;;;;;;18.80;14.13;;;9.30;99.90;;;;;;5061663;28;20569;-84
2021/11/10 10:48:07;;;;;;;15.40;13.57;;;9.50;99.90;;;;;;5061987;28;20694;-84
2021/11/10 10:50:37;;;;;;;17.25;15.13;;;9.60;99.90;;;;;;5061796;28;20233;-84
2021/11/10 10:53:04;;;;;;;21.40;15.15;;;9.60;99.90;;;;;;5060808;28;20230;-84
2021/11/10 10:55:36;;;;;;;15.70;14.18;;;9.80;99.90;;;;;;5060474;28;20719;-84
2021/11/10 10:58:03;;;;;;;18.67;15.38;;;10.00;99.90;;;;;;5061447;28;20219;-84
2021/11/10 11:00:32;;;;;;;17.70;14.57;;;10.20;99.90;;;;;;5060807;28;20203;-84
2021/11/10 11:03:28;;;;;;;18.70;14.47;;;10.30;99.90;;;;;;5061474;28;20247;-84
2021/11/10 11:05:57;;;;;;;17.38;15.43;;;10.50;99.90;;;;;;5061065;28;20455;-84
2021/11/10 11:08:35;;;;;;;14.50;13.00;;;10.70;99.40;;;;;;5060769;28;20601;-84
2021/11/10 11:11:21;;;;;;;16.23;13.70;;;10.90;99.10;;;;;;5060511;28;20439;-84
2021/11/10 11:13:50;;;;;;;16.13;13.73;;;11.10;99.40;;;;;;5061340;28;20521;-84
2021/11/10 11:16:25;;;;;;;17.30;13.97;;;11.50;98.80;;;;;;5062694;28;20498;-84
2021/11/10 11:19:10;;;;;;;17.90;15.30;;;11.90;97.60;;;;;;5061422;28;20449;-85
2021/11/10 11:21:56;;;;;;;16.43;14.73;;;12.20;97.50;;;;;;5060641;28;20478;-84
2021/11/10 11:24:38;;;;;;;17.77;15.90;;;12.40;96.80;;;;;;5061253;28;20452;-84
2021/11/10 11:27:26;;;;;;;18.53;14.90;;;12.70;96.20;;;;;;5060750;28;20454;-84
2021/11/10 11:30:09;;;;;;;14.57;13.27;;;12.80;95.80;;;;;;5060311;28;20428;-84
2021/11/10 11:32:39;;;;;;;17.43;15.70;;;13.00;95.60;;;;;;5058443;28;20497;-84
2021/11/10 11:35:10;;;;;;;16.50;14.67;;;13.10;95.10;;;;;;5062158;28;20948;-84
2021/11/10 11:37:40;;;;;;;18.13;16.50;;;13.20;95.10;;;;;;5063123;28;20456;-84
2021/11/10 11:40:09;;;;;;;18.00;16.20;;;13.20;94.80;;;;;;5062184;28;20498;-84
2021/11/10 11:42:37;;;;;;;20.47;16.47;;;13.10;95.10;;;;;;5061366;28;20475;-86
2021/11/10 11:45:06;;;;;;;17.13;15.53;;;13.00;94.70;;;;;;5060439;28;20456;-87
2021/11/10 11:47:33;;;;;;;22.93;16.77;;;13.00;94.90;;;;;;5060769;28;20467;-84
2021/11/10 11:50:04;;;;;;;17.50;15.80;;;12.90;95.20;;;;;;5061377;28;20460;-84
2021/11/10 11:52:33;;;;;;;16.20;14.60;;;12.90;95.30;;;;;;5061410;28;20489;-84
2021/11/10 11:55:06;;;;;;;17.37;15.50;;;13.00;94.60;;;;;;5061722;28;20462;-84
2021/11/10 11:57:33;;;;;;;17.50;15.67;;;13.00;94.40;;;;;;5061169;28;20443;-84
2021/11/10 12:00:01;;;;;;;25.13;16.67;;;13.20;94.70;;;;;;5060987;28;20455;-84
2021/11/10 12:02:36;;;;;;;23.03;14.13;;;13.30;93.90;;;;;;5060849;28;20468;-84
2021/11/10 12:05:13;;;;;;;16.90;15.13;;;13.40;93.90;;;;;;5062016;28;20443;-85
2021/11/10 12:07:47;;;;;;;18.93;15.97;;;13.60;93.70;;;;;;5061384;28;20471;-83
2021/11/10 12:10:37;;;;;;;16.60;14.90;;;13.70;92.80;;;;;;5061560;28;20440;-84
2021/11/10 12:13:11;;;;;;;21.83;15.20;;;13.90;92.60;;;;;;5061098;28;20494;-84
2021/11/10 12:16:07;;;;;;;17.70;15.87;;;14.20;92.80;;;;;;5061288;28;20499;-84
2021/11/10 12:18:43;;;;;;;17.73;16.03;;;14.30;92.50;;;;;;5060744;28;20433;-84
2021/11/10 12:21:12;;;;;;;19.07;16.10;;;14.50;92.40;;;;;;5061308;28;20476;-85
2021/11/10 12:24:04;;;;;;;17.80;16.10;;;14.70;92.00;;;;;;5060280;28;20447;-85
2021/11/10 12:26:31;;;;;;;17.10;14.03;;;14.80;91.40;;;;;;5061046;28;20433;-85
2021/11/10 12:28:59;;;;;;;15.93;14.33;;;15.00;91.60;;;;;;5059760;28;20456;-85
2021/11/10 12:31:30;;;;;;;16.57;14.87;;;15.20;91.20;;;;;;5059966;28;20471;-85
2021/11/10 12:33:59;;;;;;;16.37;14.77;;;15.50;91.00;;;;;;5059758;28;20480;-85
2021/11/10 12:36:52;;;;;;;19.33;16.13;;;15.70;90.40;;;;;;5060540;28;20571;-85
2021/11/10 12:39:30;;;;;;;19.00;14.70;;;15.60;90.50;;;;;;5059868;28;20441;-85
2021/11/10 12:42:01;;;;;;;17.00;15.37;;;15.30;90.60;;;;;;5059394;28;20453;-85
2021/11/10 12:44:29;;;;;;;17.23;15.33;;;15.30;90.70;;;;;;5059104;28;20511;-85